Airfield :
LOGIN :

Register | Disclaimer

   EN    FR    IT 

 










Legend :    VFR   Marginal VFR   IFR   Intensive IFR   Very Intensive IFR
Visi :
Ceiling :
>= 8 km
>= 3000ft
5 to 8 km
1000 to 3000 ft
1500m to 5 km
500 to 1000 ft
800 to 1500m
200 to 500 ft
< 800m
< 200 ft
Symbols :   Thunderstorms  Fog  Heavy snow  Heavy precipitations  Wind > 20 kt
SIGMETs :     Misc.  Thunderstorms  Icing  Turbulence  Mountain Waves  Volcanic Ashes







- Airport Elevation : 286 ft
- IATA code : FFD


EGVA - RAF Fairford

CURRENT METAR :
  • 211256Z AUTO 19004KT 9999 BKN042 23/13 A2995 RMK AO2 VIS 0200 RWY09 SLP143 T02320128

EXPIRED METARs :
  • 211156Z AUTO 00000KT 9000 HZ BKN037 22/13 A2995 RMK AO2 VIS 0200 RWY09 SLP144 70002 T02190132 10227 20153 50000
  • 211151Z AUTO 11004KT 9999 BKN037 22/13 A2995 RMK AO2 VIS 0200 RWY09 SLP143
  • 211056Z AUTO 00000KT 9999 SCT036 21/13 A2996 RMK AO2 VIS 0200 RWY09 SLP147 T02050130
  • 211051Z AUTO 00000KT 9999 BKN036 21/13 A2996 RMK AO2 VIS 0200 RWY09 SLP147

Expired Forecast.
No reported NOTAMs for that airfield.



MET'MAP, your aeronautical weather chart ! - Copyright ORBIFLY December 2007 - Disclaimer

ORBIFLY MET'MAP TEAM :

Programming & Development : Alexandra Zaïnal
Concept & Development : Baudouin d'Aumeries
Co-Development & Prog : Marc-Olivier Méhu
Technical & hardware support : Manuel Goepfert

Contact : metmap@orbifly.com




SOURCES & CREDITS :

   NOAA